Stena Germanica — SKPZ — position and weather

sailwx.info

Track history (hours):
 
Tides and Currents Weather Stations Pressure Air Temp Water Temp Dewpoint Dewpoint Depression Visibility Wind Speed Wind Dir Waves Ship Positions

Stena Germanica

Last reported at 2015-Aug-01 07:33 UTC. Time now 2015-Aug-01 07:49 UTC.
Position N 54°32' E 018°37'.

Length 176 m; draft 6.4 m.

Type: Passenger vessel. MMSI: 265292000.

Date/timePositionNaut miles runAvg speedWind from/ knotsBaromVisibWave heightAir tempDewpointWater temp
2015-Aug-01 07:33N 54°32' E 018°37'4 3.8
2015-Aug-01 06:31N 54°33' E 018°30'0 0.0
2015-Aug-01 05:32N 54°33' E 018°30'5 5.5
2015-Aug-01 04:33N 54°32' E 018°40'1211.6
2015-Aug-01 03:33N 54°39' E 018°56'1313.3
2015-Aug-01 02:34N 54°50' E 018°44'1514.8
2015-Aug-01 01:33N 55°01' E 018°25'1614.7
2015-Aug-01 00:28N 55°09' E 018°02'10114.1
2015-Jul-31 17:18N 56°08' E 015°36'3 3.2
2015-Jul-31 16:30N 56°10' E 015°38'0 0.0
2015-Jul-31 15:33N 56°10' E 015°38'0 0.0
2015-Jul-31 13:33N 56°10' E 015°38'0 0.2
2015-Jul-31 12:33N 56°10' E 015°38'0 0.1
2015-Jul-31 11:31N 56°10' E 015°38'0 0.0
2015-Jul-31 10:31N 56°10' E 015°38'0 0.0
2015-Jul-31 09:31N 56°10' E 015°38'0 0.0
2015-Jul-31 08:31N 56°10' E 015°38'0 0.1
2015-Jul-31 07:11N 56°10' E 015°38'2 3.3
2015-Jul-31 06:34N 56°08' E 015°36'11215.5
2015-Jul-30 23:22N 55°03' E 018°17'1315.6
2015-Jul-30 22:34N 54°56' E 018°35'1616.1
2015-Jul-30 21:34N 54°44' E 018°53'1313.1
2015-Jul-30 20:34N 54°32' E 018°45'9 8.3
2015-Jul-30 19:31N 54°33' E 018°30'0 0.0
2015-Jul-30 18:32N 54°33' E 018°30'6 6.3
2015-Jul-30 17:33N 54°32' E 018°41'1312.9
2015-Jul-30 16:34N 54°42' E 018°55'1717.4
2015-Jul-30 15:34N 54°55' E 018°35'1817.8
2015-Jul-30 14:34N 55°06' E 018°11'10717.4
2015-Jul-30 08:25N 56°08' E 015°36'2 1.2
2015-Jul-30 06:33N 56°10' E 015°38'10314.1
2015-Jul-29 23:17N 55°08' E 018°03'1115.8
2015-Jul-29 22:33N 55°02' E 018°20'1615.8
2015-Jul-29 21:33N 54°52' E 018°41'1615.9
2015-Jul-29 20:33N 54°39' E 018°57'1413.6
2015-Jul-29 19:33N 54°32' E 018°37'4 3.6
2015-Jul-29 18:32N 54°33' E 018°30'0 0.0
2015-Jul-29 17:33N 54°33' E 018°30'6 6.2
2015-Jul-29 16:33N 54°32' E 018°41'1313.0
2015-Jul-29 15:33N 54°43' E 018°54'1818.3
2015-Jul-29 14:33N 54°57' E 018°33'1919.0
2015-Jul-29 13:32N 55°08' E 018°05'10317.3
2015-Jul-29 07:33N 56°09' E 015°36'1 1.1
2015-Jul-29 06:15N 56°10' E 015°38'1 1.7
2015-Jul-29 05:33N 56°09' E 015°37'11416.1
2015-Jul-28 22:29N 55°02' E 018°20'1617.1
2015-Jul-28 21:34N 54°52' E 018°41'1716.8
2015-Jul-28 20:33N 54°37' E 018°55'1313.2
2015-Jul-28 19:34N 54°32' E 018°34'2 1.9
2015-Jul-28 18:31N 54°33' E 018°30'0 0.0
2015-Jul-28 17:34N 54°33' E 018°30'5 5.1
2015-Jul-28 16:34N 54°32' E 018°39'1413.5
2015-Jul-28 15:33N 54°42' E 018°55'1717.2
2015-Jul-28 14:33N 54°55' E 018°36'1817.6
2015-Jul-28 13:32N 55°06' E 018°11'10816.8
2015-Jul-28 07:08N 56°08' E 015°36'2 3.2
2015-Jul-28 06:33N 56°10' E 015°38'0 0.0
2015-Jul-28 05:12N 56°10' E 015°38'3 4.0
2015-Jul-28 04:33N 56°08' E 015°36'10714.7
2015-Jul-27 21:16N 55°06' E 018°11'1115.3
2015-Jul-27 20:33N 54°60' E 018°27'1515.4
2015-Jul-27 19:33N 54°49' E 018°46'1414.0
2015-Jul-27 18:33N 54°36' E 018°55'1110.7
2015-Jul-27 17:33N 54°32' E 018°38'4 4.3
2015-Jul-27 16:33N 54°33' E 018°30'0 0.0
2015-Jul-27 15:33N 54°33' E 018°30'0 0.0
2015-Jul-27 14:33N 54°33' E 018°30'0 0.0
2015-Jul-27 13:33N 54°33' E 018°30'0 0.0
2015-Jul-27 12:33N 54°33' E 018°30'0 0.0
2015-Jul-27 11:33N 54°33' E 018°30'0 0.0
2015-Jul-27 10:33N 54°33' E 018°30'0 0.0
2015-Jul-27 09:33N 54°33' E 018°30'0 0.0
2015-Jul-27 08:33N 54°33' E 018°30'0 0.0
2015-Jul-27 07:33N 54°33' E 018°30'0 0.3
2015-Jul-27 06:33N 54°33' E 018°31'1010.3
2015-Jul-27 05:34N 54°33' E 018°48'1313.0
2015-Jul-27 04:33N 54°46' E 018°50'1514.6
2015-Jul-27 03:33N 54°57' E 018°34'1716.6
2015-Jul-27 02:34N 55°06' E 018°10'1716.6
2015-Jul-27 01:33N 55°15' E 017°45'9015.0
2015-Jul-26 19:33N 56°10' E 015°38'0 0.1
2015-Jul-26 18:13N 56°10' E 015°38'5 6.9
2015-Jul-26 17:33N 56°06' E 015°34'11115.7
2015-Jul-26 10:28N 55°03' E 018°17'1415.9
2015-Jul-26 09:33N 54°55' E 018°37'1817.7
2015-Jul-26 08:34N 54°41' E 018°56'1414.4
2015-Jul-26 07:33N 54°32' E 018°36'4 3.5
2015-Jul-26 06:31N 54°33' E 018°30'0 0.0
2015-Jul-26 05:33N 54°33' E 018°30'5 5.2
2015-Jul-26 04:34N 54°32' E 018°39'1313.1
2015-Jul-26 03:34N 54°41' E 018°56'1717.2
2015-Jul-26 02:34N 54°54' E 018°35'1716.7
2015-Jul-26 01:33N 55°05' E 018°13'10915.4
2015-Jul-25 18:27N 56°10' E 015°38'0 0.0
2015-Jul-25 17:33N 56°10' E 015°38'11215.9
2015-Jul-25 10:31N 55°03' E 018°17'1717.6
2015-Jul-25 09:33N 54°53' E 018°40'1717.0
2015-Jul-25 08:34N 54°39' E 018°57'1414.0
2015-Jul-25 07:34N 54°32' E 018°35'3 3.0
2015-Jul-25 06:33N 54°33' E 018°30'0 0.0
2015-Jul-25 05:33N 54°33' E 018°30'5 5.0
2015-Jul-25 04:33N 54°32' E 018°39'1211.6
2015-Jul-25 03:33N 54°39' E 018°55'1313.5
2015-Jul-25 02:33N 54°50' E 018°43'1414.0
2015-Jul-25 01:34N 54°60' E 018°26'1414.1
2015-Jul-25 00:33N 55°08' E 018°05'1414.3
2015-Jul-24 23:34N 55°15' E 017°44'1514.5
2015-Jul-24 22:33N 55°23' E 017°23'1514.6
2015-Jul-24 21:33N 55°31' E 017°01'1514.6
2015-Jul-24 20:33N 55°39' E 016°39'1414.4
2015-Jul-24 19:33N 55°47' E 016°17'1414.3
2015-Jul-24 18:34N 55°55' E 015°57'1615.3
2015-Jul-24 17:33N 56°04' E 015°34'6 6.2
2015-Jul-24 16:33N 56°10' E 015°38'0 0.0
2015-Jul-24 14:27N 56°10' E 015°38'0 0.0
2015-Jul-24 11:03N 56°10' E 015°38'0 0.0
2015-Jul-24 10:03N 56°10' E 015°38'0 0.0
2015-Jul-24 09:27N 56°10' E 015°38'0 0.0
2015-Jul-24 07:09N 56°10' E 015°38'0 0.6
2015-Jul-24 06:33N 56°10' E 015°37'9415.2
2015-Jul-24 00:22N 55°13' E 017°50'1416.2
2015-Jul-23 23:31N 55°06' E 018°10'1616.8
2015-Jul-23 22:33N 54°57' E 018°34'1717.4
2015-Jul-23 21:33N 54°44' E 018°54'1313.5
2015-Jul-23 20:34N 54°32' E 018°43'7 7.2
2015-Jul-23 19:33N 54°33' E 018°30'0 0.0
2015-Jul-23 18:33N 54°33' E 018°30'6 5.8
2015-Jul-23 17:33N 54°32' E 018°40'1313.1
2015-Jul-23 16:34N 54°42' E 018°54'1817.8
2015-Jul-23 15:33N 54°56' E 018°35'1817.8
2015-Jul-23 14:34N 55°07' E 018°10'10716.9
2015-Jul-23 08:15N 56°08' E 015°36'2 2.8
2015-Jul-23 07:29N 56°10' E 015°38'0 0.0
2015-Jul-23 06:33N 56°10' E 015°38'5713.2
2015-Jul-23 02:14N 55°34' E 016°55'4615.6
2015-Jul-22 23:17N 55°10' E 018°05'1115.5
2015-Jul-22 22:33N 55°03' E 018°21'1515.2
2015-Jul-22 21:34N 54°53' E 018°40'1615.5
2015-Jul-22 20:34N 54°41' E 018°57'1413.5
2015-Jul-22 19:33N 54°32' E 018°40'6 5.6
2015-Jul-22 18:32N 54°33' E 018°30'0 0.0
2015-Jul-22 17:33N 54°33' E 018°30'5 5.1
2015-Jul-22 16:33N 54°32' E 018°39'1413.7
2015-Jul-22 15:33N 54°43' E 018°54'2017.5
2015-Jul-22 14:25N 54°58' E 018°32'10918.0
2015-Jul-22 08:21N 55°58' E 015°50'  
Track history (hours):
 
Tides and Currents Weather Stations Pressure Air Temp Water Temp Dewpoint Dewpoint Depression Visibility Wind Speed Wind Dir Waves Ship Positions

Stena Germanica

Last reported at 2015-Aug-01 07:33 UTC. Time now 2015-Aug-01 07:49 UTC.
Position N 54°32' E 018°37'.

Length 176 m; draft 6.4 m.

Type: Passenger vessel. MMSI: 265292000.

Date/timePositionNaut miles runAvg speedWind from/ knotsBaromVisibWave heightAir tempDewpointWater temp
2015-Aug-01 07:33N 54°32' E 018°37'4 3.8
2015-Aug-01 06:31N 54°33' E 018°30'0 0.0
2015-Aug-01 05:32N 54°33' E 018°30'5 5.5
2015-Aug-01 04:33N 54°32' E 018°40'1211.6
2015-Aug-01 03:33N 54°39' E 018°56'1313.3
2015-Aug-01 02:34N 54°50' E 018°44'1514.8
2015-Aug-01 01:33N 55°01' E 018°25'1614.7
2015-Aug-01 00:28N 55°09' E 018°02'10114.1
2015-Jul-31 17:18N 56°08' E 015°36'3 3.2
2015-Jul-31 16:30N 56°10' E 015°38'0 0.0
2015-Jul-31 15:33N 56°10' E 015°38'0 0.0
2015-Jul-31 13:33N 56°10' E 015°38'0 0.2
2015-Jul-31 12:33N 56°10' E 015°38'0 0.1
2015-Jul-31 11:31N 56°10' E 015°38'0 0.0
2015-Jul-31 10:31N 56°10' E 015°38'0 0.0
2015-Jul-31 09:31N 56°10' E 015°38'0 0.0
2015-Jul-31 08:31N 56°10' E 015°38'0 0.1
2015-Jul-31 07:11N 56°10' E 015°38'2 3.3
2015-Jul-31 06:34N 56°08' E 015°36'11215.5
2015-Jul-30 23:22N 55°03' E 018°17'1315.6
2015-Jul-30 22:34N 54°56' E 018°35'1616.1
2015-Jul-30 21:34N 54°44' E 018°53'1313.1
2015-Jul-30 20:34N 54°32' E 018°45'9 8.3
2015-Jul-30 19:31N 54°33' E 018°30'0 0.0
2015-Jul-30 18:32N 54°33' E 018°30'6 6.3
2015-Jul-30 17:33N 54°32' E 018°41'1312.9
2015-Jul-30 16:34N 54°42' E 018°55'1717.4
2015-Jul-30 15:34N 54°55' E 018°35'1817.8
2015-Jul-30 14:34N 55°06' E 018°11'10717.4
2015-Jul-30 08:25N 56°08' E 015°36'2 1.2
2015-Jul-30 06:33N 56°10' E 015°38'10314.1
2015-Jul-29 23:17N 55°08' E 018°03'1115.8
2015-Jul-29 22:33N 55°02' E 018°20'1615.8
2015-Jul-29 21:33N 54°52' E 018°41'1615.9
2015-Jul-29 20:33N 54°39' E 018°57'1413.6
2015-Jul-29 19:33N 54°32' E 018°37'4 3.6
2015-Jul-29 18:32N 54°33' E 018°30'0 0.0
2015-Jul-29 17:33N 54°33' E 018°30'6 6.2
2015-Jul-29 16:33N 54°32' E 018°41'1313.0
2015-Jul-29 15:33N 54°43' E 018°54'1818.3
2015-Jul-29 14:33N 54°57' E 018°33'1919.0
2015-Jul-29 13:32N 55°08' E 018°05'10317.3
2015-Jul-29 07:33N 56°09' E 015°36'1 1.1
2015-Jul-29 06:15N 56°10' E 015°38'1 1.7
2015-Jul-29 05:33N 56°09' E 015°37'11416.1
2015-Jul-28 22:29N 55°02' E 018°20'1617.1
2015-Jul-28 21:34N 54°52' E 018°41'1716.8
2015-Jul-28 20:33N 54°37' E 018°55'1313.2
2015-Jul-28 19:34N 54°32' E 018°34'2 1.9
2015-Jul-28 18:31N 54°33' E 018°30'0 0.0
2015-Jul-28 17:34N 54°33' E 018°30'5 5.1
2015-Jul-28 16:34N 54°32' E 018°39'1413.5
2015-Jul-28 15:33N 54°42' E 018°55'1717.2
2015-Jul-28 14:33N 54°55' E 018°36'1817.6
2015-Jul-28 13:32N 55°06' E 018°11'10816.8
2015-Jul-28 07:08N 56°08' E 015°36'2 3.2
2015-Jul-28 06:33N 56°10' E 015°38'0 0.0
2015-Jul-28 05:12N 56°10' E 015°38'3 4.0
2015-Jul-28 04:33N 56°08' E 015°36'10714.7
2015-Jul-27 21:16N 55°06' E 018°11'1115.3
2015-Jul-27 20:33N 54°60' E 018°27'1515.4
2015-Jul-27 19:33N 54°49' E 018°46'1414.0
2015-Jul-27 18:33N 54°36' E 018°55'1110.7
2015-Jul-27 17:33N 54°32' E 018°38'4 4.3
2015-Jul-27 16:33N 54°33' E 018°30'0 0.0
2015-Jul-27 15:33N 54°33' E 018°30'0 0.0
2015-Jul-27 14:33N 54°33' E 018°30'0 0.0
2015-Jul-27 13:33N 54°33' E 018°30'0 0.0
2015-Jul-27 12:33N 54°33' E 018°30'0 0.0
2015-Jul-27 11:33N 54°33' E 018°30'0 0.0
2015-Jul-27 10:33N 54°33' E 018°30'0 0.0
2015-Jul-27 09:33N 54°33' E 018°30'0 0.0
2015-Jul-27 08:33N 54°33' E 018°30'0 0.0
2015-Jul-27 07:33N 54°33' E 018°30'0 0.3
2015-Jul-27 06:33N 54°33' E 018°31'1010.3
2015-Jul-27 05:34N 54°33' E 018°48'1313.0
2015-Jul-27 04:33N 54°46' E 018°50'1514.6
2015-Jul-27 03:33N 54°57' E 018°34'1716.6
2015-Jul-27 02:34N 55°06' E 018°10'1716.6
2015-Jul-27 01:33N 55°15' E 017°45'9015.0
2015-Jul-26 19:33N 56°10' E 015°38'0 0.1
2015-Jul-26 18:13N 56°10' E 015°38'5 6.9
2015-Jul-26 17:33N 56°06' E 015°34'11115.7
2015-Jul-26 10:28N 55°03' E 018°17'1415.9
2015-Jul-26 09:33N 54°55' E 018°37'1817.7
2015-Jul-26 08:34N 54°41' E 018°56'1414.4
2015-Jul-26 07:33N 54°32' E 018°36'4 3.5
2015-Jul-26 06:31N 54°33' E 018°30'0 0.0
2015-Jul-26 05:33N 54°33' E 018°30'5 5.2
2015-Jul-26 04:34N 54°32' E 018°39'1313.1
2015-Jul-26 03:34N 54°41' E 018°56'1717.2
2015-Jul-26 02:34N 54°54' E 018°35'1716.7
2015-Jul-26 01:33N 55°05' E 018°13'10915.4
2015-Jul-25 18:27N 56°10' E 015°38'0 0.0
2015-Jul-25 17:33N 56°10' E 015°38'11215.9
2015-Jul-25 10:31N 55°03' E 018°17'1717.6
2015-Jul-25 09:33N 54°53' E 018°40'1717.0
2015-Jul-25 08:34N 54°39' E 018°57'1414.0
2015-Jul-25 07:34N 54°32' E 018°35'3 3.0
2015-Jul-25 06:33N 54°33' E 018°30'0 0.0
2015-Jul-25 05:33N 54°33' E 018°30'5 5.0
2015-Jul-25 04:33N 54°32' E 018°39'1211.6
2015-Jul-25 03:33N 54°39' E 018°55'1313.5
2015-Jul-25 02:33N 54°50' E 018°43'1414.0
2015-Jul-25 01:34N 54°60' E 018°26'1414.1
2015-Jul-25 00:33N 55°08' E 018°05'1414.3
2015-Jul-24 23:34N 55°15' E 017°44'1514.5
2015-Jul-24 22:33N 55°23' E 017°23'1514.6
2015-Jul-24 21:33N 55°31' E 017°01'1514.6
2015-Jul-24 20:33N 55°39' E 016°39'1414.4
2015-Jul-24 19:33N 55°47' E 016°17'1414.3
2015-Jul-24 18:34N 55°55' E 015°57'1615.3
2015-Jul-24 17:33N 56°04' E 015°34'6 6.2
2015-Jul-24 16:33N 56°10' E 015°38'0 0.0
2015-Jul-24 14:27N 56°10' E 015°38'0 0.0
2015-Jul-24 11:03N 56°10' E 015°38'0 0.0
2015-Jul-24 10:03N 56°10' E 015°38'0 0.0
2015-Jul-24 09:27N 56°10' E 015°38'0 0.0
2015-Jul-24 07:09N 56°10' E 015°38'0 0.6
2015-Jul-24 06:33N 56°10' E 015°37'9415.2
2015-Jul-24 00:22N 55°13' E 017°50'1416.2
2015-Jul-23 23:31N 55°06' E 018°10'1616.8
2015-Jul-23 22:33N 54°57' E 018°34'1717.4
2015-Jul-23 21:33N 54°44' E 018°54'1313.5
2015-Jul-23 20:34N 54°32' E 018°43'7 7.2
2015-Jul-23 19:33N 54°33' E 018°30'0 0.0
2015-Jul-23 18:33N 54°33' E 018°30'6 5.8
2015-Jul-23 17:33N 54°32' E 018°40'1313.1
2015-Jul-23 16:34N 54°42' E 018°54'1817.8
2015-Jul-23 15:33N 54°56' E 018°35'1817.8
2015-Jul-23 14:34N 55°07' E 018°10'10716.9
2015-Jul-23 08:15N 56°08' E 015°36'2 2.8
2015-Jul-23 07:29N 56°10' E 015°38'0 0.0
2015-Jul-23 06:33N 56°10' E 015°38'5713.2
2015-Jul-23 02:14N 55°34' E 016°55'4615.6
2015-Jul-22 23:17N 55°10' E 018°05'1115.5
2015-Jul-22 22:33N 55°03' E 018°21'1515.2
2015-Jul-22 21:34N 54°53' E 018°40'1615.5
2015-Jul-22 20:34N 54°41' E 018°57'1413.5
2015-Jul-22 19:33N 54°32' E 018°40'6 5.6
2015-Jul-22 18:32N 54°33' E 018°30'0 0.0
2015-Jul-22 17:33N 54°33' E 018°30'5 5.1
2015-Jul-22 16:33N 54°32' E 018°39'1413.7
2015-Jul-22 15:33N 54°43' E 018°54'2017.5
2015-Jul-22 14:25N 54°58' E 018°32'10918.0
2015-Jul-22 08:21N 55°58' E 015°50'  

Dump ship's entire track history